createdAt,value
2023-02-02T00:02:51.201Z,100.00
2023-02-02T00:05:54.415Z,100.00
2023-02-02T00:08:58.634Z,100.00
2023-02-02T00:12:01.533Z,100.00
2023-02-02T00:15:03.950Z,100.00
2023-02-02T00:18:07.265Z,100.00
2023-02-02T00:21:09.474Z,100.00
2023-02-02T00:24:14.515Z,99.82
2023-02-02T00:27:16.688Z,97.88
2023-02-02T00:30:19.398Z,98.41
2023-02-02T00:33:21.907Z,100.00
2023-02-02T00:36:24.781Z,100.00
2023-02-02T00:39:27.077Z,100.00
2023-02-02T00:42:29.985Z,100.00
2023-02-02T00:45:32.215Z,100.00
2023-02-02T00:48:34.827Z,100.00
2023-02-02T00:51:37.475Z,99.36
2023-02-02T00:54:40.793Z,94.79
2023-02-02T00:57:44.370Z,93.29
2023-02-02T01:00:48.481Z,93.46
2023-02-02T01:03:51.616Z,91.69
2023-02-02T01:06:55.061Z,94.32
2023-02-02T01:09:57.870Z,94.52
2023-02-02T01:13:00.591Z,94.87
2023-02-02T01:16:04.802Z,94.87
2023-02-02T01:19:09.181Z,95.96
2023-02-02T01:22:11.714Z,95.00
2023-02-02T01:25:15.298Z,94.61
2023-02-02T01:28:17.487Z,95.15
2023-02-02T01:31:20.671Z,96.09
2023-02-02T01:34:23.121Z,96.30
2023-02-02T01:37:26.010Z,96.83
2023-02-02T01:40:28.443Z,96.08
2023-02-02T01:43:43.274Z,96.73
2023-02-02T01:46:45.501Z,97.43
2023-02-02T01:49:48.488Z,96.46
2023-02-02T01:52:53.790Z,94.80
2023-02-02T01:55:57.167Z,94.73
2023-02-02T01:59:00.015Z,95.95
2023-02-02T02:02:03.710Z,96.11
2023-02-02T02:05:07.747Z,95.21
2023-02-02T02:08:30.930Z,93.20
2023-02-02T02:11:36.120Z,92.82
2023-02-02T02:14:56.833Z,92.92
2023-02-02T02:18:24.608Z,94.08
2023-02-02T02:21:48.820Z,94.46
2023-02-02T02:25:21.623Z,94.88
2023-02-02T02:28:47.154Z,96.32
2023-02-02T02:32:27.269Z,96.59
2023-02-02T02:35:48.453Z,96.96
2023-02-02T02:39:15.278Z,97.54
2023-02-02T02:42:22.801Z,97.94
2023-02-02T02:45:28.112Z,98.58
2023-02-02T02:48:31.055Z,99.10
2023-02-02T02:51:44.264Z,100.00
2023-02-02T02:54:53.876Z,100.00
2023-02-02T02:58:09.002Z,100.00
2023-02-02T03:01:20.583Z,100.00
2023-02-02T03:04:39.729Z,100.00
2023-02-02T03:07:47.619Z,100.00
2023-02-02T03:10:52.371Z,100.00
2023-02-02T03:13:55.312Z,100.00
2023-02-02T03:16:57.668Z,100.00
2023-02-02T03:19:59.889Z,100.00
2023-02-02T03:23:02.688Z,100.00
2023-02-02T03:26:05.216Z,100.00
2023-02-02T03:29:08.235Z,100.00
2023-02-02T03:32:10.955Z,100.00
2023-02-02T03:35:14.417Z,100.00
2023-02-02T03:38:16.668Z,100.00
2023-02-02T03:41:19.403Z,100.00
2023-02-02T03:44:21.656Z,100.00
2023-02-02T03:47:29.607Z,100.00
2023-02-02T03:50:31.910Z,100.00
2023-02-02T03:53:34.420Z,100.00
2023-02-02T03:56:36.671Z,100.00
2023-02-02T03:59:39.212Z,100.00
2023-02-02T04:02:42.011Z,100.00
2023-02-02T04:05:44.808Z,100.00
2023-02-02T04:08:47.063Z,100.00
2023-02-02T04:11:49.575Z,100.00
2023-02-02T04:14:52.177Z,100.00
2023-02-02T04:17:55.360Z,100.00
2023-02-02T04:21:02.160Z,100.00
2023-02-02T04:24:07.399Z,100.00
2023-02-02T04:27:09.576Z,100.00
2023-02-02T04:30:12.265Z,100.00
2023-02-02T04:33:14.449Z,100.00
2023-02-02T04:36:17.458Z,100.00
2023-02-02T04:39:19.965Z,100.00
2023-02-02T04:42:22.805Z,100.00
2023-02-02T04:45:25.259Z,100.00
2023-02-02T04:48:27.988Z,100.00
2023-02-02T04:51:30.575Z,100.00
2023-02-02T04:54:34.010Z,100.00
2023-02-02T04:57:36.272Z,100.00
2023-02-02T05:00:38.748Z,100.00
2023-02-02T05:03:41.752Z,100.00
2023-02-02T05:06:44.482Z,100.00
2023-02-02T05:09:46.993Z,100.00
2023-02-02T05:12:53.515Z,100.00
2023-02-02T05:15:55.653Z,100.00
2023-02-02T05:18:59.578Z,100.00
2023-02-02T05:22:02.849Z,100.00
2023-02-02T05:25:06.891Z,100.00
2023-02-02T05:28:09.110Z,100.00
2023-02-02T05:31:11.984Z,100.00
2023-02-02T05:34:14.423Z,100.00
2023-02-02T05:37:17.529Z,100.00
2023-02-02T05:40:19.797Z,99.77
2023-02-02T05:43:25.748Z,99.59
2023-02-02T05:46:28.948Z,98.90
2023-02-02T05:49:31.431Z,98.17
2023-02-02T05:52:35.559Z,99.34
2023-02-02T05:55:38.084Z,99.42
2023-02-02T05:58:40.289Z,97.00
2023-02-02T06:01:43.921Z,98.55
2023-02-02T06:04:46.674Z,96.25
2023-02-02T06:07:48.915Z,97.30
2023-02-02T06:10:51.477Z,97.26
2023-02-02T06:13:53.828Z,97.53
2023-02-02T06:16:56.402Z,98.71
2023-02-02T06:19:58.866Z,98.57
2023-02-02T06:23:01.366Z,98.15
2023-02-02T06:26:04.384Z,98.07
2023-02-02T06:29:07.812Z,97.41
2023-02-02T06:32:10.060Z,97.28
2023-02-02T06:35:12.800Z,97.36
2023-02-02T06:38:15.278Z,96.89
2023-02-02T06:41:20.352Z,96.19
2023-02-02T06:44:22.593Z,96.88
2023-02-02T06:47:26.919Z,96.35
2023-02-02T06:50:30.313Z,95.56
2023-02-02T06:53:32.924Z,94.19
2023-02-02T06:56:35.165Z,94.27
2023-02-02T06:59:38.276Z,93.74
2023-02-02T07:02:40.482Z,93.63
2023-02-02T07:05:43.184Z,93.60
2023-02-02T07:08:46.047Z,92.22
2023-02-02T07:12:00.128Z,92.23
2023-02-02T07:15:02.325Z,92.21
2023-02-02T07:18:04.894Z,91.49
2023-02-02T07:21:07.112Z,91.56
2023-02-02T07:24:09.715Z,91.95
2023-02-02T07:27:12.047Z,91.88
2023-02-02T07:30:16.067Z,91.01
2023-02-02T07:33:18.199Z,90.12
2023-02-02T07:36:23.513Z,89.88
2023-02-02T07:39:25.830Z,88.79
2023-02-02T07:42:28.335Z,88.40
2023-02-02T07:45:31.180Z,88.66
2023-02-02T07:48:34.599Z,89.19
2023-02-02T07:51:38.249Z,88.16
2023-02-02T07:54:42.390Z,88.70
2023-02-02T07:57:44.803Z,87.37
2023-02-02T08:00:47.319Z,86.81
2023-02-02T08:03:50.658Z,85.26
2023-02-02T08:06:53.074Z,84.61
2023-02-02T08:09:55.583Z,85.10
2023-02-02T08:12:57.857Z,84.56
2023-02-02T08:16:00.478Z,83.97
2023-02-02T08:19:02.731Z,83.31
2023-02-02T08:22:05.166Z,81.36
2023-02-02T08:25:08.259Z,82.18
2023-02-02T08:28:10.810Z,81.16
2023-02-02T08:31:19.496Z,79.41
2023-02-02T08:34:22.051Z,77.52
2023-02-02T08:37:24.206Z,75.65
2023-02-02T08:40:26.818Z,74.92
2023-02-02T08:43:29.154Z,73.44
2023-02-02T08:46:31.872Z,72.66
2023-02-02T08:49:34.551Z,72.53
2023-02-02T08:52:37.151Z,72.62
2023-02-02T08:55:39.324Z,71.04
2023-02-02T08:58:50.883Z,69.28
2023-02-02T09:01:53.106Z,68.81
2023-02-02T09:04:55.576Z,67.28
2023-02-02T09:07:57.742Z,65.46
2023-02-02T09:11:05.626Z,67.12
2023-02-02T09:14:08.975Z,66.41
2023-02-02T09:17:11.497Z,65.66
2023-02-02T09:20:13.775Z,64.50
2023-02-02T09:23:16.436Z,64.04
2023-02-02T09:26:22.027Z,61.25
2023-02-02T09:29:24.615Z,60.87
2023-02-02T09:32:26.833Z,61.61
2023-02-02T09:35:29.422Z,61.82
2023-02-02T09:38:31.685Z,61.17
2023-02-02T09:41:37.079Z,60.94
2023-02-02T09:44:48.553Z,62.74
2023-02-02T09:47:58.462Z,60.98
2023-02-02T09:51:06.413Z,61.27
2023-02-02T09:54:34.799Z,60.76
2023-02-02T09:57:41.174Z,60.77
2023-02-02T10:01:01.435Z,59.89
2023-02-02T10:04:36.995Z,59.53
2023-02-02T10:07:45.654Z,60.04
2023-02-02T10:10:50.792Z,58.87
2023-02-02T10:13:57.246Z,59.43
2023-02-02T10:17:12.842Z,60.09
2023-02-02T10:20:42.573Z,60.33
2023-02-02T10:23:45.911Z,60.37
2023-02-02T10:26:52.341Z,60.58
2023-02-02T10:30:03.370Z,60.31
2023-02-02T10:33:07.375Z,60.57
2023-02-02T10:36:32.665Z,61.22
2023-02-02T10:39:49.458Z,59.96
2023-02-02T10:43:26.167Z,56.08
2023-02-02T10:46:42.504Z,49.91
2023-02-02T10:49:45.805Z,48.23
2023-02-02T10:52:54.383Z,45.41
2023-02-02T10:56:02.971Z,46.88
2023-02-02T10:59:17.871Z,51.12
2023-02-02T11:02:21.387Z,54.77
2023-02-02T11:05:51.070Z,57.75
2023-02-02T11:08:59.357Z,58.86
2023-02-02T11:12:10.714Z,58.90
2023-02-02T11:15:28.765Z,56.75
2023-02-02T11:18:31.354Z,52.82
2023-02-02T11:21:35.061Z,51.30
2023-02-02T11:24:47.304Z,46.68
2023-02-02T11:27:49.960Z,46.00
2023-02-02T11:30:53.803Z,49.19
2023-02-02T11:34:20.791Z,50.56
2023-02-02T11:37:23.553Z,52.03
2023-02-02T11:40:28.300Z,48.25
2023-02-02T11:43:41.475Z,47.01
2023-02-02T11:46:47.624Z,43.86
2023-02-02T11:49:52.326Z,44.52
2023-02-02T11:52:57.820Z,48.20
2023-02-02T11:56:06.797Z,51.75
2023-02-02T11:59:29.594Z,53.56
2023-02-02T12:02:32.720Z,55.86
2023-02-02T12:05:37.490Z,57.19
2023-02-02T12:08:39.990Z,59.25
2023-02-02T12:12:00.152Z,60.60
2023-02-02T12:15:02.602Z,60.14
2023-02-02T12:18:20.147Z,61.51
2023-02-02T12:21:31.307Z,62.00
2023-02-02T12:24:54.805Z,62.09
2023-02-02T12:28:08.057Z,63.55
2023-02-02T12:31:27.415Z,63.74
2023-02-02T12:34:41.868Z,63.74
2023-02-02T12:38:02.758Z,63.64
2023-02-02T12:41:34.443Z,63.95
2023-02-02T12:44:51.023Z,63.57
2023-02-02T12:48:00.183Z,64.72
2023-02-02T12:51:15.031Z,64.14
2023-02-02T12:54:46.132Z,65.15
2023-02-02T12:58:10.665Z,64.79
2023-02-02T13:01:28.249Z,65.78
2023-02-02T13:05:09.149Z,63.92
2023-02-02T13:08:20.167Z,64.20
2023-02-02T13:11:33.017Z,63.31
2023-02-02T13:14:47.117Z,63.11
2023-02-02T13:18:00.441Z,64.13
2023-02-02T13:21:15.409Z,64.61
2023-02-02T13:24:31.081Z,64.64
2023-02-02T13:27:33.396Z,65.94
2023-02-02T13:30:39.812Z,65.75
2023-02-02T13:33:44.705Z,65.59
2023-02-02T13:36:53.341Z,65.04
2023-02-02T13:40:01.041Z,65.61
2023-02-02T13:43:15.676Z,66.04
2023-02-02T13:46:27.588Z,66.12
2023-02-02T13:49:52.595Z,66.46
2023-02-02T13:53:13.254Z,66.60
2023-02-02T13:56:18.662Z,66.37
2023-02-02T13:59:58.415Z,66.35
2023-02-02T14:03:29.272Z,65.42
2023-02-02T14:06:56.748Z,63.92
2023-02-02T14:09:59.504Z,60.52
2023-02-02T14:13:07.233Z,60.60
2023-02-02T14:16:21.593Z,61.12
2023-02-02T14:19:33.279Z,63.67
2023-02-02T14:22:39.803Z,63.62
2023-02-02T14:25:45.347Z,64.27
2023-02-02T14:28:51.233Z,64.73
2023-02-02T14:31:55.544Z,64.72
2023-02-02T14:34:58.151Z,65.20
2023-02-02T14:38:32.607Z,66.78
2023-02-02T14:42:10.263Z,66.96
2023-02-02T14:45:12.631Z,67.35
2023-02-02T14:48:25.225Z,67.00
2023-02-02T14:51:30.787Z,64.92
2023-02-02T14:54:39.794Z,64.66
2023-02-02T14:57:42.777Z,65.03
2023-02-02T15:00:57.280Z,65.21
2023-02-02T15:04:22.985Z,65.56
2023-02-02T15:07:25.062Z,66.67
2023-02-02T15:10:53.921Z,66.81
2023-02-02T15:14:06.921Z,67.24
2023-02-02T15:17:31.116Z,67.79
2023-02-02T15:20:40.459Z,68.41
2023-02-02T15:23:46.177Z,68.31
2023-02-02T15:26:50.030Z,69.04
2023-02-02T15:30:02.961Z,69.29
2023-02-02T15:33:24.736Z,69.91
2023-02-02T15:36:31.231Z,70.20
2023-02-02T15:39:41.174Z,70.72
2023-02-02T15:42:53.099Z,71.22
2023-02-02T15:46:04.499Z,71.30
2023-02-02T15:49:33.682Z,71.54
2023-02-02T15:52:47.041Z,72.04
2023-02-02T15:55:50.500Z,72.83
2023-02-02T15:58:54.940Z,73.42
2023-02-02T16:02:06.507Z,74.47
2023-02-02T16:05:24.696Z,74.34
2023-02-02T16:08:34.929Z,75.17
2023-02-02T16:11:42.043Z,75.81
2023-02-02T16:14:50.257Z,76.18
2023-02-02T16:18:02.324Z,76.77
2023-02-02T16:21:14.673Z,77.15
2023-02-02T16:24:28.499Z,77.63
2023-02-02T16:27:31.484Z,78.17
2023-02-02T16:30:38.122Z,78.17
2023-02-02T16:33:44.811Z,78.24
2023-02-02T16:37:31.955Z,77.80
2023-02-02T16:40:34.221Z,77.54
2023-02-02T16:43:39.020Z,77.42
2023-02-02T16:46:47.668Z,77.77
2023-02-02T16:49:50.146Z,78.23
2023-02-02T16:52:54.334Z,79.16
2023-02-02T16:55:58.003Z,79.00
2023-02-02T16:59:05.402Z,79.86
2023-02-02T17:02:31.564Z,78.43
2023-02-02T17:05:47.568Z,78.95
2023-02-02T17:08:51.198Z,77.93
2023-02-02T17:11:59.960Z,78.59
2023-02-02T17:15:24.449Z,78.74
2023-02-02T17:18:26.999Z,78.94
2023-02-02T17:21:33.583Z,79.35
2023-02-02T17:24:36.222Z,79.59
2023-02-02T17:27:38.681Z,79.47
2023-02-02T17:30:42.626Z,78.21
2023-02-02T17:33:45.204Z,78.97
2023-02-02T17:36:47.511Z,78.67
2023-02-02T17:39:50.734Z,79.39
2023-02-02T17:42:53.789Z,79.31
2023-02-02T17:45:56.407Z,79.57
2023-02-02T17:48:58.717Z,79.06
2023-02-02T17:52:01.165Z,78.91
2023-02-02T17:55:03.493Z,79.86
2023-02-02T17:58:06.416Z,79.17
2023-02-02T18:01:11.658Z,78.90
2023-02-02T18:04:15.245Z,78.51
2023-02-02T18:07:17.369Z,78.70
2023-02-02T18:10:24.540Z,78.56
2023-02-02T18:13:27.739Z,78.94
2023-02-02T18:16:30.584Z,79.13
2023-02-02T18:19:32.715Z,78.86
2023-02-02T18:22:35.201Z,79.97
2023-02-02T18:25:39.009Z,80.11
2023-02-02T18:28:41.639Z,80.79
2023-02-02T18:31:43.904Z,81.21
2023-02-02T18:34:51.164Z,81.43
2023-02-02T18:37:53.677Z,81.58
2023-02-02T18:40:57.713Z,81.85
2023-02-02T18:43:59.849Z,82.18
2023-02-02T18:47:02.224Z,81.13
2023-02-02T18:50:04.841Z,81.96
2023-02-02T18:53:07.290Z,82.53
2023-02-02T18:56:10.561Z,83.03
2023-02-02T18:59:12.885Z,82.37
2023-02-02T19:02:17.846Z,82.64
2023-02-02T19:05:38.961Z,83.79
2023-02-02T19:08:41.158Z,83.70
2023-02-02T19:11:46.366Z,82.90
2023-02-02T19:14:48.495Z,82.67
2023-02-02T19:17:53.463Z,82.26
2023-02-02T19:20:55.690Z,81.87
2023-02-02T19:23:59.591Z,81.55
2023-02-02T19:27:01.727Z,82.46
2023-02-02T19:30:16.297Z,82.39
2023-02-02T19:33:19.167Z,82.75
2023-02-02T19:36:24.162Z,82.26
2023-02-02T19:39:30.763Z,83.33
2023-02-02T19:42:33.375Z,82.70
2023-02-02T19:45:35.852Z,82.86
2023-02-02T19:48:39.109Z,83.54
2023-02-02T19:51:51.431Z,83.82
2023-02-02T19:54:53.953Z,83.80
2023-02-02T19:58:15.735Z,83.78
2023-02-02T20:01:32.652Z,84.87
2023-02-02T20:04:35.197Z,85.51
2023-02-02T20:07:40.962Z,85.42
2023-02-02T20:10:44.007Z,85.95
2023-02-02T20:13:48.383Z,86.25
2023-02-02T20:16:55.408Z,87.46
2023-02-02T20:19:59.043Z,87.40
2023-02-02T20:23:02.260Z,87.83
2023-02-02T20:26:25.808Z,87.58
2023-02-02T20:29:40.142Z,87.59
2023-02-02T20:32:42.469Z,88.10
2023-02-02T20:35:45.037Z,87.99
2023-02-02T20:38:48.055Z,87.82
2023-02-02T20:41:51.944Z,87.96
2023-02-02T20:44:54.860Z,87.53
2023-02-02T20:47:57.549Z,88.06
2023-02-02T20:50:59.807Z,87.78
2023-02-02T20:54:02.239Z,88.10
2023-02-02T20:57:04.864Z,88.45
2023-02-02T21:00:10.574Z,88.84
2023-02-02T21:03:14.171Z,89.97
2023-02-02T21:06:16.683Z,89.98
2023-02-02T21:09:18.997Z,89.79
2023-02-02T21:12:25.442Z,89.91
2023-02-02T21:15:27.681Z,90.18
2023-02-02T21:18:30.295Z,90.32
2023-02-02T21:21:32.461Z,90.18
2023-02-02T21:24:34.906Z,89.53
2023-02-02T21:27:41.017Z,89.91
2023-02-02T21:30:43.743Z,89.63
2023-02-02T21:33:47.411Z,89.00
2023-02-02T21:36:50.523Z,88.36
2023-02-02T21:39:57.997Z,88.15
2023-02-02T21:43:06.019Z,88.70
2023-02-02T21:46:17.877Z,89.33
2023-02-02T21:49:26.596Z,89.30
2023-02-02T21:52:33.008Z,89.69
2023-02-02T21:55:37.317Z,89.66
2023-02-02T21:58:39.507Z,89.96
2023-02-02T22:01:42.550Z,90.37
2023-02-02T22:04:45.007Z,89.80
2023-02-02T22:07:49.086Z,89.84
2023-02-02T22:10:51.722Z,89.98
2023-02-02T22:13:55.491Z,90.44
2023-02-02T22:16:59.341Z,90.14
2023-02-02T22:20:07.529Z,89.80
2023-02-02T22:23:11.884Z,90.31
2023-02-02T22:26:34.746Z,90.43
2023-02-02T22:29:37.143Z,90.43
2023-02-02T22:32:39.271Z,90.39
2023-02-02T22:35:42.600Z,89.78
2023-02-02T22:38:44.752Z,90.80
2023-02-02T22:41:47.182Z,90.52
2023-02-02T22:44:49.603Z,89.80
2023-02-02T22:47:52.529Z,90.11
2023-02-02T22:50:54.686Z,90.80
2023-02-02T22:53:57.098Z,91.17
2023-02-02T22:56:59.299Z,91.96
2023-02-02T23:00:04.320Z,91.77
2023-02-02T23:03:06.612Z,91.89
2023-02-02T23:06:09.070Z,91.74
2023-02-02T23:09:11.219Z,91.98
2023-02-02T23:12:13.694Z,91.36
2023-02-02T23:15:15.889Z,92.20
2023-02-02T23:18:18.279Z,90.16
2023-02-02T23:21:20.440Z,89.42
2023-02-02T23:24:22.956Z,88.35
2023-02-02T23:27:25.258Z,88.46
2023-02-02T23:30:27.933Z,87.76
2023-02-02T23:33:31.110Z,88.40
2023-02-02T23:36:33.543Z,88.28
2023-02-02T23:39:35.659Z,87.90
2023-02-02T23:42:38.117Z,87.36
2023-02-02T23:45:40.751Z,87.88
2023-02-02T23:48:43.311Z,87.19
2023-02-02T23:51:45.917Z,87.29
2023-02-02T23:54:48.498Z,88.30
2023-02-02T23:57:50.687Z,87.62
